Time;durP1;ratioP1;P1;durP2;ratioP2;P2;SDS_P1;SDS_P2;PMS_P1;PMS_P2;Temp;Humidity;BMP_temperature;BMP_pressure;BME280_temperature;BME280_humidity;BME280_pressure;Samples;Min_cycle;Max_cycle;Signal;HPM_P1;HPM_P2
2020/12/18 14:49:08;;;;;;;77.45;29.25;;;0.20;96.70;;;;;;5036704;28;20849;-96
2020/12/18 14:51:34;;;;;;;75.60;31.38;;;0.20;97.00;;;;;;5036566;28;20033;-96
2020/12/18 14:54:02;;;;;;;78.43;31.05;;;0.30;97.30;;;;;;5021811;28;20030;-95
2020/12/18 14:56:28;;;;;;;79.63;31.48;;;0.40;97.60;;;;;;5026544;28;20029;-95
2020/12/18 14:58:54;;;;;;;84.25;33.67;;;0.50;97.90;;;;;;5021281;28;20033;-96
2020/12/18 15:01:20;;;;;;;84.55;33.72;;;0.60;98.00;;;;;;5018071;28;20030;-96
2020/12/18 15:03:45;;;;;;;84.05;32.38;;;0.70;98.10;;;;;;5021984;28;20059;-96
2020/12/18 15:06:14;;;;;;;79.43;32.30;;;0.70;97.90;;;;;;5032881;28;20041;-94
2020/12/18 15:11:09;;;;;;;83.38;32.75;;;0.90;97.70;;;;;;5052588;28;20443;-94
2020/12/18 15:13:37;;;;;;;86.20;33.67;;;1.00;98.00;;;;;;5030823;28;20474;-96
2020/12/18 15:16:03;;;;;;;95.45;35.70;;;1.00;97.70;;;;;;5031501;28;20030;-94
2020/12/18 15:18:28;;;;;;;95.20;35.08;;;1.00;97.60;;;;;;5031299;28;20538;-94
2020/12/18 15:20:55;;;;;;;74.43;30.42;;;1.10;97.50;;;;;;5030728;28;20071;-94
2020/12/18 15:23:21;;;;;;;87.93;32.53;;;1.10;97.70;;;;;;5031249;28;20060;-95
2020/12/18 15:25:47;;;;;;;95.50;35.05;;;1.10;97.60;;;;;;5030830;28;20088;-93
2020/12/18 15:28:12;;;;;;;85.18;32.35;;;1.10;97.50;;;;;;5030899;28;20025;-95
2020/12/18 15:30:38;;;;;;;86.60;33.05;;;1.20;97.40;;;;;;5030702;28;20038;-94
2020/12/18 15:33:04;;;;;;;82.70;32.53;;;1.20;97.20;;;;;;5030582;28;20091;-95
2020/12/18 15:35:30;;;;;;;99.82;33.85;;;1.20;97.30;;;;;;5031147;28;20026;-93
2020/12/18 15:37:56;;;;;;;86.18;32.80;;;1.20;97.20;;;;;;5030012;28;20030;-94
2020/12/18 15:40:23;;;;;;;83.57;30.90;;;1.20;97.30;;;;;;5030980;28;20087;-95
2020/12/18 15:42:49;;;;;;;93.65;34.22;;;1.20;97.30;;;;;;5031289;28;20394;-94
2020/12/18 15:45:15;;;;;;;81.80;31.33;;;1.20;97.20;;;;;;5029700;28;20044;-93
2020/12/18 15:47:46;;;;;;;80.18;31.58;;;1.20;97.30;;;;;;5030134;28;20420;-93
2020/12/18 15:50:12;;;;;;;78.65;30.38;;;1.30;97.20;;;;;;5031868;28;20073;-93
2020/12/18 15:52:37;;;;;;;77.32;30.40;;;1.30;97.00;;;;;;5032269;28;20025;-94
2020/12/18 15:55:03;;;;;;;91.55;32.60;;;1.30;96.80;;;;;;5023942;28;20348;-92
2020/12/18 15:57:29;;;;;;;90.70;31.88;;;1.30;96.90;;;;;;5031031;28;20117;-93
2020/12/18 15:59:55;;;;;;;75.00;28.70;;;1.30;96.80;;;;;;5026714;28;20022;-92
2020/12/18 16:02:21;;;;;;;76.78;30.10;;;1.30;97.00;;;;;;5028818;28;20057;-92
2020/12/18 16:04:47;;;;;;;83.15;30.05;;;1.30;97.10;;;;;;5029655;28;20033;-92
2020/12/18 16:07:13;;;;;;;85.18;31.33;;;1.30;96.90;;;;;;5029522;28;20026;-93
2020/12/18 16:09:39;;;;;;;90.55;34.75;;;1.30;96.60;;;;;;5029173;28;20054;-92
2020/12/18 16:12:05;;;;;;;82.15;30.42;;;1.30;96.40;;;;;;5040956;28;20021;-93
2020/12/18 16:14:30;;;;;;;85.75;31.88;;;1.30;96.70;;;;;;5047401;28;20029;-95
2020/12/18 16:16:58;;;;;;;82.00;32.47;;;1.20;96.80;;;;;;5029088;28;20022;-94
2020/12/18 16:19:24;;;;;;;80.13;30.20;;;1.20;96.80;;;;;;5028946;28;20047;-92
2020/12/18 16:21:50;;;;;;;87.70;34.95;;;1.30;96.90;;;;;;5020272;28;20026;-93
2020/12/18 16:24:16;;;;;;;85.10;34.95;;;1.30;96.60;;;;;;4996665;28;20085;-93
2020/12/18 16:26:42;;;;;;;90.32;34.47;;;1.30;96.60;;;;;;4996212;28;20038;-94
2020/12/18 16:29:08;;;;;;;93.35;34.42;;;1.30;96.40;;;;;;4996161;28;20027;-96
2020/12/18 16:31:34;;;;;;;90.25;35.85;;;1.20;96.40;;;;;;5010213;28;20026;-94
2020/12/18 16:34:01;;;;;;;95.85;34.70;;;1.20;96.30;;;;;;5015586;28;20485;-95
2020/12/18 16:36:27;;;;;;;82.70;32.20;;;1.20;96.30;;;;;;5015682;28;20113;-94
2020/12/18 16:38:53;;;;;;;97.13;34.75;;;1.20;96.50;;;;;;5015913;28;20084;-95
2020/12/18 16:41:30;;;;;;;92.03;36.10;;;1.20;96.40;;;;;;5015982;28;20458;-93
2020/12/18 16:43:57;;;;;;;87.93;36.17;;;1.20;96.30;;;;;;5015446;28;20022;-96
2020/12/18 16:46:23;;;;;;;89.78;35.30;;;1.20;96.30;;;;;;5015328;28;20022;-94
2020/12/18 16:48:49;;;;;;;80.72;33.35;;;1.20;96.30;;;;;;5015230;28;20033;-95
2020/12/18 16:51:23;;;;;;;86.90;33.97;;;1.20;96.50;;;;;;5015524;28;20018;-95
2020/12/18 16:53:49;;;;;;;89.40;32.38;;;1.10;96.50;;;;;;5015258;28;20022;-95
2020/12/18 16:56:25;;;;;;;93.38;34.85;;;1.20;96.60;;;;;;5015095;28;20018;-93
2020/12/18 16:58:52;;;;;;;82.75;32.40;;;1.20;96.50;;;;;;5015295;28;20120;-95
2020/12/18 17:01:19;;;;;;;77.85;30.38;;;1.20;96.60;;;;;;5014934;28;20038;-94
2020/12/18 17:03:45;;;;;;;87.03;35.72;;;1.20;96.70;;;;;;5015136;28;20020;-95
2020/12/18 17:06:12;;;;;;;91.25;34.35;;;1.20;96.60;;;;;;5014875;28;20060;-94
2020/12/18 17:08:39;;;;;;;97.82;38.00;;;1.20;96.60;;;;;;5015275;28;20021;-92
2020/12/18 17:11:05;;;;;;;85.28;33.50;;;1.20;96.60;;;;;;5014985;28;20482;-93
2020/12/18 17:13:31;;;;;;;100.45;39.35;;;1.20;96.60;;;;;;5015011;28;20149;-94
2020/12/18 17:15:57;;;;;;;93.30;37.55;;;1.20;96.50;;;;;;5015501;28;20022;-92
2020/12/18 17:18:23;;;;;;;97.72;38.38;;;1.30;96.60;;;;;;5019252;28;20021;-95
2020/12/18 17:21:08;;;;;;;101.18;37.45;;;1.20;96.40;;;;;;5035086;28;20093;-95
2020/12/18 17:23:34;;;;;;;84.63;34.72;;;1.30;96.40;;;;;;5019718;28;20030;-96
2020/12/18 17:26:00;;;;;;;77.57;33.10;;;1.20;96.40;;;;;;5035473;28;20061;-94
2020/12/18 17:28:31;;;;;;;93.78;38.08;;;1.20;96.10;;;;;;5019926;28;20030;-95
2020/12/18 17:34:30;;;;;;;96.13;36.70;;;1.20;96.10;;;;;;5036412;28;20071;-94
2020/12/18 17:37:00;;;;;;;95.20;38.97;;;1.20;96.10;;;;;;5035971;28;20022;-96
2020/12/18 17:39:30;;;;;;;87.85;35.10;;;1.20;96.10;;;;;;5035889;28;20030;-96
2020/12/18 17:42:01;;;;;;;94.05;39.47;;;1.20;96.30;;;;;;5036661;28;20010;-96
2020/12/18 17:44:30;;;;;;;90.00;38.63;;;1.20;96.00;;;;;;5030354;28;20056;-95
2020/12/18 17:47:10;;;;;;;84.68;35.40;;;1.20;96.10;;;;;;5035995;28;20459;-94
2020/12/18 17:57:49;;;;;;;79.32;33.30;;;1.20;96.30;;;;;;5608554;22;20050;-95
2020/12/18 18:00:17;;;;;;;86.03;37.75;;;1.20;96.30;;;;;;5018621;28;20060;-95
2020/12/18 18:02:43;;;;;;;89.18;37.35;;;1.20;96.20;;;;;;5004366;28;20053;-94
2020/12/18 18:05:10;;;;;;;79.22;34.83;;;1.20;96.00;;;;;;4986494;28;20030;-95
2020/12/18 18:07:40;;;;;;;97.43;38.38;;;1.20;96.00;;;;;;5019005;28;20006;-94
2020/12/18 18:10:08;;;;;;;86.13;37.33;;;1.20;96.00;;;;;;5036325;28;20042;-95
2020/12/18 18:12:37;;;;;;;80.05;34.20;;;1.20;96.00;;;;;;5018595;28;20029;-95
2020/12/18 18:15:05;;;;;;;76.13;32.08;;;1.20;96.20;;;;;;5019812;28;20086;-94
2020/12/18 18:25:41;;;;;;;106.22;43.47;;;1.20;96.10;;;;;;5553928;23;20056;-95
2020/12/18 18:28:07;;;;;;;94.75;40.92;;;1.20;96.10;;;;;;4919766;29;20036;-95
2020/12/18 18:30:32;;;;;;;110.22;45.35;;;1.10;96.00;;;;;;4903622;29;20095;-96
2020/12/18 18:32:58;;;;;;;91.80;39.30;;;1.20;96.00;;;;;;4917690;29;20078;-96
2020/12/18 18:35:24;;;;;;;104.25;43.13;;;1.20;96.10;;;;;;4918145;29;20024;-95
2020/12/18 18:37:51;;;;;;;83.40;37.92;;;1.20;96.10;;;;;;4961790;23;20053;-96
2020/12/18 18:40:19;;;;;;;87.68;37.58;;;1.20;96.20;;;;;;4920244;29;20039;-94
2020/12/18 18:42:52;;;;;;;91.95;37.55;;;1.20;96.20;;;;;;4904399;29;20043;-95
2020/12/18 18:45:21;;;;;;;87.63;36.80;;;1.20;96.30;;;;;;4922514;29;20016;-95
2020/12/18 18:47:50;;;;;;;82.43;34.95;;;1.20;96.20;;;;;;5016301;23;20040;-94
2020/12/18 18:50:19;;;;;;;93.18;35.30;;;1.20;96.30;;;;;;4919327;29;20040;-96
2020/12/18 18:52:49;;;;;;;85.30;36.08;;;1.20;96.30;;;;;;4886855;29;20039;-96
2020/12/18 18:55:15;;;;;;;80.78;34.20;;;1.20;96.20;;;;;;4917840;29;20040;-94
2020/12/18 18:57:41;;;;;;;83.05;33.97;;;1.20;96.20;;;;;;4913872;29;20434;-94
2020/12/18 19:00:07;;;;;;;87.55;36.33;;;1.20;96.10;;;;;;4915301;29;20035;-94
2020/12/18 19:02:34;;;;;;;89.05;34.90;;;1.20;96.10;;;;;;5270898;23;20057;-96
2020/12/18 19:05:00;;;;;;;78.07;32.42;;;1.20;96.00;;;;;;4969918;28;20046;-94
2020/12/18 19:07:26;;;;;;;88.15;33.33;;;1.20;96.10;;;;;;4968691;28;20035;-94
2020/12/18 19:09:52;;;;;;;83.10;33.17;;;1.20;96.00;;;;;;4965290;28;20031;-93
2020/12/18 19:12:22;;;;;;;70.55;30.30;;;1.20;96.00;;;;;;4970049;28;20035;-93
2020/12/18 19:14:48;;;;;;;97.45;40.83;;;1.20;96.10;;;;;;4970357;28;20121;-95
2020/12/18 19:17:13;;;;;;;78.78;34.50;;;1.20;96.00;;;;;;4976190;28;20038;-94
2020/12/18 19:19:42;;;;;;;79.57;34.90;;;1.20;95.90;;;;;;4970327;28;20074;-94
2020/12/18 19:22:08;;;;;;;75.72;31.52;;;1.10;95.80;;;;;;4968115;28;20089;-95
2020/12/18 19:24:34;;;;;;;80.13;31.50;;;1.20;96.00;;;;;;4961017;28;20031;-94
2020/12/18 19:27:00;;;;;;;79.15;31.70;;;1.20;96.00;;;;;;4963289;28;20035;-93
2020/12/18 19:29:27;;;;;;;85.07;32.17;;;1.20;96.00;;;;;;4973132;29;20023;-93
2020/12/18 19:34:47;;;;;;;74.13;31.13;;;1.20;95.90;;;;;;4966494;28;20059;-93
2020/12/18 19:37:14;;;;;;;78.30;33.80;;;1.10;95.80;;;;;;4946356;29;20491;-92
2020/12/18 19:39:40;;;;;;;81.70;32.90;;;1.10;95.80;;;;;;4944258;29;20032;-93
2020/12/18 19:42:06;;;;;;;81.45;33.58;;;1.10;95.90;;;;;;4947976;29;20015;-93
2020/12/18 19:44:33;;;;;;;78.97;33.33;;;1.10;95.90;;;;;;4948813;29;20035;-93
2020/12/18 19:46:58;;;;;;;81.95;32.40;;;1.10;96.00;;;;;;4938255;29;20071;-92
2020/12/18 20:14:00;;;;;;;79.38;31.58;;;0.40;95.30;;;;;;5092183;28;20838;-94
2020/12/18 20:16:28;;;;;;;88.35;34.63;;;0.40;95.60;;;;;;5091886;28;20020;-95
2020/12/18 20:18:54;;;;;;;91.07;35.17;;;0.40;96.10;;;;;;5073523;28;20024;-93
2020/12/18 20:21:55;;;;;;;91.65;35.42;;;0.40;96.30;;;;;;5091335;28;20031;-92
2020/12/18 20:24:24;;;;;;;100.40;39.40;;;0.50;96.60;;;;;;5074674;28;20028;-95
